Southern Sonoma County Latest

20 Stations

15 Minute Data
as of 5/2/26 8:12 PM PDT
Station Date Time Temp (°F) RH (%) Dew Pt (°F) Wind Spd (mph) Wind Dir (°) Wind Gust (mph) Latest Rain (In) Daily Rain (In) Daily Min Temp (°F) Daily Max Temp (°F)
Upper Rincon Valley 5/2/26 2000 50.5   5.6 86   4 46.6   4.2 1.6   1.1 S | 176 4.4   2.8 0.00 0.00 47.7   2.6 60.1   11.6
Lower Bennett Valley 5/2/26 2000 52.8   2.3 84   2 48.2   3.1 2.0   3.0 WSW | 249 6.0   2.5 0.00 0.00 50.5   3.0 62.0   12.6
Kenwood (Wildwood) 5/2/26 2000 52.8   7.6 82   19 47.5   0.5 3.9   1.1 NW | 321 8.4   0.4 0.00 0.00 50.1   5.4 68.4   7.8
Crane Creek (Ranch 62) 5/2/26 2000 53.5   0.9 81   6 47.8   2.8 2.2   0.8 SW | 220 5.4   1.2 0.00 0.00 51.6   1.8 61.0   14.0
Rohnert Park-West (Stony Point) 5/2/26 2000 54.1   0.5 84   8 49.4   1.9 3.1   0.6 WSW | 239 7.5   1.2 0.00 0.00 52.2   1.5 60.2   8.3
Rice-Spivak Vineyard 5/2/26 2000 53.3   0.3 - - - - - - - 51.7   1.9 62.5   6.8
Cartograph Wines Base 5/2/26 2000 52.9   0.0 89   5 49.8   1.6 4.7   2.0 SSW | 209 10.6   4.4 0.00 0.00 51.2   1.3 58.3   7.6
Cartograph Wines Remote 5/2/26 2000 53.6   0.3 - - - - - - - 52.1   1.6 60.4   6.8
Penngrove (Asellus) 5/2/26 2000 53.6   0.6 82   5 48.2   2.3 2.5   0.2 SW | 217 6.9   2.8 0.00 0.00 52.2   2.0 60.7   12.6
Sonoma Valley (Bedrock) 5/2/26 2000 53.3   8.2 77   17 46.2   1.0 - - - 0.00 0.00 45.8   4.0 65.3   7.9
Sonoma-West (Arnold) 5/2/26 2000 53.5   4.8 81   7 47.7   2.4 4.8   1.3 W | 262 11.5   5.3 0.00 0.00 45.3   3.8 67.6   5.1
Sonoma Valley HS 5/2/26 2000 54.1   5.1 84   5 49.3   3.4 3.9   0.1 WSW | 249 7.6   0.0 0.00 0.00 49.6   6.2 63.1   7.2
Sonoma East (Bundschu01) 5/2/26 2000 54.3   4.8 78   4 47.6   3.2 5.2   2.6 W | 276 12.3   7.2 0.00 0.00 48.6   5.9 64.3   6.9
Sonoma-SE (Napoli) 5/2/26 2000 54.4   5.1 77   6 47.5   2.6 3.2   2.6 W | 265 8.8   0.7 0.00 0.00 49.3   6.4 65.1   5.3
Schellville (Sasaki) 2/7/26 1900 53.4   2.2 88   10 49.9   1.0 3.3   1.8 SW | 225 5.8   4.0 0.00 0.00 47.0   0.8 62.8   8.4
Petaluma (Ranch 10) 5/2/26 2000 54.9   2.1 77   2 47.7   2.6 5.1   1.1 WNW | 284 8.8   0.8 0.00 0.00 52.3   7.4 64.1   11.8
Carneros (Ranch 71) 5/2/26 2000 53.1   5.2 81   8 47.5   2.3 11.1   7.0 W | 274 16.9   9.2 0.00 0.00 51.3   4.0 63.6   4.3
Ricci Vineyards (Carneros) 5/2/26 2000 53.9   4.5 80   6 47.8   2.3 8.2   1.3 W | 278 12.5   0.4 0.00 0.00 51.0   5.8 65.4   4.1
Carneros Upper (Ranch 81) 5/2/26 2000 53.0   4.7 81   6 47.3   2.4 13.8   2.0 W | 260 18.7   2.8 - - 52.1   3.9 64.2   5.5
Carneros Lower (Ranch 81) 5/2/26 2000 54.1   4.8 80   6 48.1   2.5 0.5   0.1 SSW | 202 3.7   1.7 0.00 0.00 52.6   6.9 68.3   0.7
Max     54.9 89 49.8 13.8 - 18.7 0.00 0.00 52.6 68.4
Avg     53.5 81 47.9 4.7 - 9.4 0.00 - - -
Min     50.5 77 46.2 0.5 - 3.7 0.00 0.00 45.3 58.3